Time;durP1;ratioP1;P1;durP2;ratioP2;P2;SDS_P1;SDS_P2;PMS_P1;PMS_P2;Temp;Humidity;BMP_temperature;BMP_pressure;BME280_temperature;BME280_humidity;BME280_pressure;Samples;Min_cycle;Max_cycle;Signal;HPM_P1;HPM_P2
2023/07/16 00:01:08;;;;;;;8.23;7.40;;;19.50;99.90;;;19.79;100.00;97626.22;5028501;28;20482;-78
2023/07/16 00:03:35;;;;;;;8.73;7.93;;;19.60;99.90;;;19.62;100.00;97634.81;5035236;28;20457;-79
2023/07/16 00:06:03;;;;;;;10.13;7.53;;;19.50;99.90;;;19.72;100.00;97631.19;5026266;28;20505;-79
2023/07/16 00:08:30;;;;;;;9.37;8.50;;;19.50;99.90;;;19.73;100.00;97608.16;5024794;28;20454;-80
2023/07/16 00:10:57;;;;;;;9.83;7.97;;;19.50;99.90;;;19.75;100.00;97649.78;5022058;28;20563;-79
2023/07/16 00:13:25;;;;;;;10.17;9.13;;;19.60;99.90;;;19.91;100.00;97635.97;5025099;28;20450;-79
2023/07/16 00:15:52;;;;;;;8.70;7.83;;;19.60;99.90;;;19.93;100.00;97639.28;5034919;28;20481;-80
2023/07/16 00:18:21;;;;;;;8.60;7.80;;;19.60;99.90;;;19.97;100.00;97623.91;5030611;28;20446;-79
2023/07/16 00:20:48;;;;;;;8.70;7.90;;;19.70;99.90;;;19.94;100.00;97657.34;5033116;28;20476;-79
2023/07/16 00:23:15;;;;;;;9.17;8.27;;;19.60;99.90;;;19.97;100.00;97645.84;5024769;28;20534;-80
2023/07/16 00:25:43;;;;;;;8.93;8.10;;;19.60;99.90;;;19.90;100.00;97626.94;5030146;28;21009;-80
2023/07/16 00:28:11;;;;;;;7.80;7.00;;;19.60;99.90;;;19.78;100.00;97643.72;5025517;28;20450;-79
2023/07/16 00:30:39;;;;;;;9.53;8.67;;;19.50;99.90;;;19.93;100.00;97663.94;5035261;28;20469;-79
2023/07/16 00:33:06;;;;;;;9.73;8.73;;;19.60;99.90;;;20.18;100.00;97678.56;5024356;28;20455;-79
2023/07/16 00:35:35;;;;;;;8.53;7.73;;;19.80;99.90;;;20.16;100.00;97675.31;5023341;28;20461;-80
2023/07/16 00:38:02;;;;;;;8.00;7.20;;;19.80;99.90;;;20.07;100.00;97673.16;5058841;28;20472;-79
2023/07/16 00:40:29;;;;;;;9.07;7.87;;;19.80;99.90;;;20.13;100.00;97648.47;5034360;28;20521;-78
2023/07/16 00:42:57;;;;;;;8.20;7.40;;;19.70;99.90;;;20.08;100.00;97652.84;5029802;28;20447;-79
2023/07/16 00:45:24;;;;;;;8.43;7.33;;;19.80;99.90;;;19.64;100.00;97632.59;5031048;28;20450;-81
2023/07/16 00:47:52;;;;;;;8.60;7.80;;;19.60;99.90;;;19.86;100.00;97690.84;5038743;28;20467;-79
2023/07/16 00:50:20;;;;;;;10.00;7.40;;;19.60;99.90;;;19.91;100.00;97707.25;5033646;28;20531;-80
2023/07/16 00:52:49;;;;;;;8.93;7.63;;;19.60;99.90;;;20.06;100.00;97715.38;5029922;28;20965;-80
2023/07/16 00:55:16;;;;;;;8.60;7.90;;;19.70;99.90;;;19.93;100.00;97686.72;5034688;28;20526;-78
2023/07/16 00:57:44;;;;;;;7.90;7.10;;;19.70;99.90;;;19.96;100.00;97723.72;5043799;28;21020;-78
2023/07/16 01:00:13;;;;;;;7.70;7.00;;;19.60;99.90;;;20.07;100.00;97733.47;5049960;28;20913;-80
2023/07/16 01:02:40;;;;;;;9.57;8.67;;;19.60;99.90;;;19.89;100.00;97754.16;5040552;28;20516;-79
2023/07/16 01:05:08;;;;;;;10.50;7.67;;;19.60;99.90;;;20.17;100.00;97765.53;5032579;28;20977;-80
2023/07/16 01:07:37;;;;;;;7.70;6.97;;;19.80;99.90;;;20.02;100.00;97765.63;5038389;28;20787;-78
2023/07/16 01:10:07;;;;;;;8.80;7.93;;;19.70;99.90;;;20.14;100.00;97754.28;5033588;28;20965;-79
2023/07/16 01:12:35;;;;;;;10.27;7.57;;;19.70;99.90;;;20.24;100.00;97765.16;5022505;28;20449;-79
2023/07/16 01:15:02;;;;;;;8.33;7.27;;;19.80;99.90;;;20.24;100.00;97776.16;5037676;28;20477;-79
2023/07/16 01:17:30;;;;;;;7.80;6.93;;;19.80;99.90;;;20.17;100.00;97773.75;5036881;28;20486;-79
2023/07/16 01:19:57;;;;;;;7.50;6.40;;;19.70;99.90;;;20.07;100.00;97769.13;5035421;28;20931;-79
2023/07/16 01:22:46;;;;;;;7.67;6.83;;;19.70;99.90;;;20.08;100.00;97779.00;5028411;28;20466;-78
2023/07/16 01:25:57;;;;;;;7.10;6.40;;;19.70;99.90;;;19.93;100.00;97790.03;5034332;28;20456;-79
2023/07/16 01:28:50;;;;;;;8.93;6.30;;;19.70;99.90;;;19.92;100.00;97796.63;5034811;28;20515;-78
2023/07/16 01:31:21;;;;;;;6.23;5.63;;;19.70;99.90;;;19.81;100.00;97812.28;5026196;28;20523;-79
2023/07/16 01:33:51;;;;;;;6.10;5.60;;;19.60;99.90;;;19.66;100.00;97815.91;5032797;28;20473;-79
2023/07/16 01:36:19;;;;;;;4.97;4.57;;;19.50;99.90;;;19.49;100.00;97811.59;5066070;28;20450;-79
2023/07/16 01:38:47;;;;;;;4.70;4.30;;;19.40;99.90;;;19.26;100.00;97788.38;5031033;28;20489;-78
2023/07/16 01:41:14;;;;;;;4.47;4.07;;;19.20;99.90;;;19.25;100.00;97798.50;5026663;28;20444;-79
2023/07/16 01:43:42;;;;;;;5.17;4.60;;;19.10;99.90;;;19.12;100.00;97801.81;5034305;28;20457;-78
2023/07/16 01:46:09;;;;;;;4.70;4.30;;;19.10;99.90;;;19.08;100.00;97778.84;5032341;28;20454;-78
2023/07/16 01:48:40;;;;;;;4.87;4.43;;;19.00;99.90;;;19.19;100.00;97775.00;5021428;28;20505;-78
2023/07/16 01:51:08;;;;;;;4.80;4.40;;;19.00;99.90;;;19.16;100.00;97796.63;5026566;28;20470;-78
2023/07/16 01:53:35;;;;;;;4.63;4.23;;;18.90;99.90;;;19.16;100.00;97811.13;5036246;28;20860;-78
2023/07/16 01:56:03;;;;;;;3.90;3.30;;;18.90;99.90;;;19.02;100.00;97812.78;5031142;28;20503;-78
2023/07/16 01:58:30;;;;;;;5.57;3.77;;;18.90;99.90;;;18.67;100.00;97733.19;5029984;28;20453;-79
2023/07/16 02:00:57;;;;;;;4.53;4.13;;;18.90;99.90;;;18.85;100.00;97761.88;5036462;28;20451;-79
2023/07/16 02:03:25;;;;;;;3.70;3.40;;;18.80;99.90;;;18.91;100.00;97777.19;5030393;28;20460;-79
2023/07/16 02:05:53;;;;;;;3.83;3.43;;;18.80;99.90;;;18.86;100.00;97793.59;5047857;28;20540;-79
2023/07/16 02:08:20;;;;;;;5.10;4.70;;;18.70;99.90;;;18.90;100.00;97781.03;5026278;28;20451;-79
2023/07/16 02:10:49;;;;;;;4.20;3.80;;;18.80;99.90;;;18.96;100.00;97777.19;5027993;28;20474;-79
2023/07/16 02:13:16;;;;;;;3.70;3.40;;;18.80;99.90;;;19.13;100.00;97770.59;5045354;28;20443;-79
2023/07/16 02:15:44;;;;;;;4.03;3.63;;;19.00;99.90;;;19.22;100.00;97777.16;5028923;28;20564;-79
2023/07/16 02:18:11;;;;;;;4.50;4.10;;;19.10;99.90;;;19.24;100.00;97766.75;5026667;28;20524;-79
2023/07/16 02:20:39;;;;;;;4.00;3.60;;;19.20;99.90;;;19.25;100.00;97757.44;5028250;28;20602;-79
2023/07/16 02:23:07;;;;;;;3.30;3.00;;;19.20;99.90;;;19.20;100.00;97756.63;5030979;28;20462;-78
2023/07/16 02:25:34;;;;;;;4.20;3.80;;;19.20;99.90;;;19.12;100.00;97774.44;5044223;28;20873;-78
2023/07/16 02:28:02;;;;;;;4.60;4.03;;;19.20;99.90;;;19.23;100.00;97795.22;5030810;28;20892;-78
2023/07/16 02:30:29;;;;;;;5.50;3.40;;;19.20;99.90;;;19.31;100.00;97787.53;5060294;28;20470;-78
2023/07/16 02:32:56;;;;;;;5.17;4.10;;;19.20;99.90;;;19.36;100.00;97771.09;5034347;28;20455;-78
2023/07/16 02:35:23;;;;;;;4.90;4.33;;;19.30;99.90;;;19.20;100.00;97776.63;5031783;28;20566;-78
2023/07/16 02:37:51;;;;;;;2.87;2.67;;;19.20;99.90;;;19.21;100.00;97783.75;5034234;28;20450;-78
2023/07/16 02:40:20;;;;;;;4.23;3.73;;;19.20;99.90;;;19.22;100.00;97782.63;5028306;28;20458;-78
2023/07/16 02:42:47;;;;;;;3.60;3.20;;;19.20;99.90;;;19.40;100.00;97758.47;5026805;28;20503;-79
2023/07/16 02:45:14;;;;;;;3.07;2.87;;;19.20;99.90;;;19.43;100.00;97765.31;5027403;28;20496;-79
2023/07/16 02:47:41;;;;;;;3.40;3.10;;;19.20;99.90;;;19.45;100.00;97788.59;5025759;28;20458;-79
2023/07/16 02:50:10;;;;;;;5.30;3.20;;;19.20;99.90;;;19.36;100.00;97809.44;5028061;28;21013;-79
2023/07/16 02:52:37;;;;;;;3.67;3.37;;;19.20;99.90;;;19.33;100.00;97796.28;5035262;28;20454;-78
2023/07/16 02:55:06;;;;;;;3.30;2.97;;;19.10;99.90;;;19.32;100.00;97797.38;5026857;28;20450;-78
2023/07/16 02:57:34;;;;;;;3.90;3.60;;;19.20;99.90;;;19.35;100.00;97821.50;5032827;28;20541;-78
2023/07/16 03:00:02;;;;;;;3.60;3.13;;;19.10;99.90;;;19.35;100.00;97824.25;5034607;28;20513;-78
2023/07/16 03:02:29;;;;;;;3.60;3.30;;;19.10;99.90;;;19.37;100.00;97820.09;5026675;28;20462;-79
2023/07/16 03:04:56;;;;;;;3.43;3.13;;;19.10;99.90;;;19.19;100.00;97813.31;5028324;28;20451;-79
2023/07/16 03:07:23;;;;;;;3.43;3.10;;;19.10;99.90;;;19.17;100.00;97815.50;5025189;28;21028;-79
2023/07/16 03:09:51;;;;;;;3.33;3.00;;;19.10;99.90;;;19.05;100.00;97809.50;5028350;28;20461;-78
2023/07/16 03:12:18;;;;;;;4.20;3.40;;;19.10;99.90;;;19.23;100.00;97802.63;5029485;28;20469;-78
2023/07/16 03:14:46;;;;;;;4.93;2.80;;;19.00;99.90;;;19.18;100.00;97789.75;5026391;28;20455;-78
2023/07/16 03:17:14;;;;;;;5.00;3.00;;;19.00;99.90;;;19.16;100.00;97797.44;5025447;28;20496;-78
2023/07/16 03:19:41;;;;;;;3.70;3.40;;;19.00;99.90;;;19.21;100.00;97823.97;5026735;28;20438;-79
2023/07/16 03:22:08;;;;;;;3.23;3.00;;;19.00;99.90;;;19.26;100.00;97829.47;5025630;28;20508;-79
2023/07/16 03:24:35;;;;;;;2.97;2.67;;;18.90;99.90;;;19.17;100.00;97834.66;5021574;28;20835;-80
2023/07/16 03:27:03;;;;;;;2.57;2.20;;;18.90;99.90;;;19.11;100.00;97841.25;5029088;28;20808;-79
2023/07/16 03:29:30;;;;;;;3.13;2.70;;;18.90;99.90;;;19.16;99.83;97846.72;5027826;28;20943;-79
2023/07/16 03:31:59;;;;;;;2.13;1.93;;;18.90;99.90;;;19.17;100.00;97840.13;5025999;28;20474;-79
2023/07/16 03:34:26;;;;;;;4.30;2.40;;;18.90;99.90;;;19.05;99.36;97845.09;5030800;28;20470;-78
2023/07/16 03:36:53;;;;;;;2.57;2.37;;;18.80;99.90;;;18.97;99.55;97828.09;5035196;28;20455;-78
2023/07/16 03:39:20;;;;;;;1.60;1.50;;;18.80;99.90;;;18.93;100.00;97829.75;5037399;28;20446;-77
2023/07/16 03:41:48;;;;;;;2.37;1.93;;;18.70;99.90;;;18.89;100.00;97842.34;5033412;28;20939;-78
2023/07/16 03:44:15;;;;;;;2.27;2.03;;;18.70;99.90;;;18.92;100.00;97840.97;5028942;28;20949;-78
2023/07/16 03:46:42;;;;;;;2.30;1.93;;;18.70;99.90;;;19.04;100.00;97843.47;5025328;28;20489;-78
2023/07/16 03:49:11;;;;;;;2.03;1.83;;;18.70;99.90;;;19.16;100.00;97849.44;5027446;28;20515;-78
2023/07/16 03:51:38;;;;;;;2.10;1.90;;;18.70;99.90;;;19.03;99.40;97830.84;5033481;28;20520;-78
2023/07/16 03:54:05;;;;;;;2.10;1.93;;;18.80;99.90;;;18.87;99.18;97849.97;5028982;28;20842;-78
2023/07/16 03:56:32;;;;;;;2.67;1.70;;;18.70;99.90;;;18.90;97.96;97865.88;5033895;28;20520;-79
2023/07/16 03:58:59;;;;;;;2.40;2.20;;;18.70;99.90;;;18.86;99.37;97848.34;5028146;28;20501;-78
2023/07/16 04:01:27;;;;;;;1.90;1.80;;;18.80;99.90;;;19.11;99.42;97865.88;5025240;28;20516;-77
2023/07/16 04:03:54;;;;;;;1.50;1.40;;;18.80;99.90;;;19.03;94.31;97864.53;5025856;28;21000;-78
2023/07/16 04:06:23;;;;;;;1.80;1.60;;;18.80;99.90;;;19.01;95.22;97852.19;5023504;28;20479;-78
2023/07/16 04:08:50;;;;;;;2.30;1.47;;;18.80;99.90;;;19.16;94.89;97870.53;5030473;28;20956;-77
2023/07/16 04:11:17;;;;;;;2.13;1.77;;;18.90;99.90;;;19.24;93.22;97887.25;5070378;28;20485;-78
2023/07/16 04:13:46;;;;;;;1.80;1.60;;;19.00;99.90;;;19.16;93.42;97868.63;5030239;28;20447;-78
2023/07/16 04:16:13;;;;;;;1.50;1.40;;;19.00;99.90;;;19.34;92.95;97897.34;5024823;28;20549;-77
2023/07/16 04:18:41;;;;;;;1.50;1.37;;;19.10;99.90;;;19.39;93.98;97894.59;5027233;28;21146;-78
2023/07/16 04:21:08;;;;;;;1.80;1.70;;;19.00;99.90;;;19.37;95.39;97901.47;5032373;28;20481;-78
2023/07/16 04:23:37;;;;;;;1.60;1.50;;;19.10;99.90;;;19.17;93.03;97908.59;5034951;28;20478;-78
2023/07/16 04:26:04;;;;;;;3.97;1.30;;;19.00;99.90;;;19.15;90.92;97910.78;5025550;28;20497;-78
2023/07/16 04:28:31;;;;;;;1.47;1.37;;;19.10;99.90;;;19.13;88.91;97920.38;5031703;28;20466;-78
2023/07/16 04:30:58;;;;;;;1.47;1.13;;;19.00;99.90;;;19.05;87.61;97932.72;5030199;28;20500;-76
2023/07/16 04:33:25;;;;;;;2.13;1.53;;;18.90;99.70;;;19.00;87.59;97963.63;5029613;28;20950;-76
2023/07/16 04:35:52;;;;;;;1.70;1.57;;;18.90;99.90;;;18.92;87.29;97966.88;5029549;28;20441;-76
2023/07/16 04:38:19;;;;;;;2.10;1.47;;;18.80;99.90;;;19.05;87.60;97984.72;5030117;28;20451;-77
2023/07/16 04:40:48;;;;;;;1.67;1.50;;;18.80;99.90;;;18.97;86.33;97973.16;5028546;28;20501;-78
2023/07/16 04:43:15;;;;;;;1.77;1.30;;;18.80;98.60;;;19.21;85.85;97985.53;5040519;28;20995;-77
2023/07/16 04:45:46;;;;;;;1.57;1.47;;;18.90;98.90;;;19.15;83.33;97965.53;5035737;28;20460;-77
2023/07/16 04:48:13;;;;;;;1.40;1.30;;;19.00;96.20;;;18.73;82.59;97887.19;5031165;28;20525;-77
2023/07/16 04:50:40;;;;;;;1.40;1.20;;;19.00;95.90;;;20.26;78.45;97974.19;5029106;28;20488;-77
2023/07/16 04:53:08;;;;;;;1.40;1.30;;;19.80;94.60;;;20.71;74.57;97974.25;5028736;28;20547;-77
2023/07/16 04:55:39;;;;;;;1.60;1.50;;;20.60;91.80;;;20.39;74.82;97991.97;5035305;28;20458;-77
2023/07/16 04:58:07;;;;;;;1.23;1.17;;;20.60;91.40;;;20.70;73.55;97964.38;5039810;28;20447;-77
2023/07/16 05:00:35;;;;;;;1.57;0.97;;;20.70;90.90;;;20.57;72.58;97978.69;5028277;28;20528;-77
2023/07/16 05:03:02;;;;;;;1.17;1.07;;;20.70;90.30;;;21.00;70.16;97962.56;5034280;28;20519;-77
2023/07/16 05:05:30;;;;;;;2.23;1.30;;;21.00;89.50;;;21.57;67.58;97953.84;5030346;28;20472;-75
2023/07/16 05:07:57;;;;;;;1.37;1.10;;;21.60;88.30;;;22.00;67.80;97979.88;5034038;28;20539;-77
2023/07/16 05:10:24;;;;;;;1.37;1.27;;;22.20;88.10;;;21.39;69.29;97979.31;5044565;28;20446;-77
2023/07/16 05:12:53;;;;;;;1.93;1.40;;;21.70;87.80;;;20.91;72.76;97987.06;5031635;28;20470;-76
2023/07/16 05:15:21;;;;;;;1.90;1.20;;;21.30;89.50;;;20.62;71.07;97982.25;5037826;28;20457;-76
2023/07/16 05:17:49;;;;;;;1.30;1.20;;;21.00;88.40;;;20.14;72.47;97988.19;5027597;28;21027;-76
2023/07/16 05:20:16;;;;;;;1.50;1.40;;;20.40;89.10;;;19.66;73.52;97975.66;5028451;28;20449;-76
2023/07/16 05:22:43;;;;;;;3.00;1.40;;;20.00;90.00;;;19.73;75.06;98008.28;5033645;28;20511;-75
2023/07/16 05:25:10;;;;;;;1.17;1.00;;;19.70;90.80;;;19.53;76.03;98009.09;5031888;28;20493;-75
2023/07/16 05:27:37;;;;;;;2.20;1.53;;;19.50;91.20;;;19.45;76.20;98006.94;5034540;28;20443;-76
2023/07/16 05:30:07;;;;;;;1.57;1.27;;;19.40;91.50;;;19.36;75.66;98020.34;5029671;28;20449;-76
2023/07/16 05:32:36;;;;;;;3.00;1.60;;;19.40;91.20;;;19.11;77.32;98011.00;5024810;28;20494;-76
2023/07/16 05:35:03;;;;;;;1.60;1.33;;;19.20;91.70;;;19.20;77.95;98022.25;5063205;28;20455;-76
2023/07/16 05:37:31;;;;;;;1.80;1.40;;;19.10;92.30;;;19.28;76.05;98026.34;5028516;28;20531;-77
2023/07/16 05:39:58;;;;;;;1.70;1.37;;;19.20;91.80;;;19.17;76.55;98034.56;5026287;28;20443;-76
2023/07/16 05:42:26;;;;;;;1.83;1.63;;;19.20;91.70;;;19.76;74.02;98029.63;5030467;28;20458;-76
2023/07/16 05:44:53;;;;;;;2.37;1.27;;;19.50;91.10;;;20.34;70.43;98033.94;5028575;28;20461;-74
2023/07/16 05:47:20;;;;;;;1.93;1.23;;;20.20;89.60;;;19.75;72.54;98028.00;5031382;28;20565;-75
2023/07/16 05:49:49;;;;;;;2.00;1.63;;;20.00;89.80;;;19.22;75.02;98009.94;5044637;28;20454;-76
2023/07/16 05:52:16;;;;;;;1.73;1.63;;;19.40;90.50;;;19.35;75.03;98030.47;5025751;28;20474;-76
2023/07/16 05:54:45;;;;;;;2.17;1.20;;;19.30;91.00;;;19.13;74.72;98024.44;5027938;28;20450;-77
2023/07/16 05:57:12;;;;;;;1.67;1.57;;;19.20;90.70;;;18.93;75.46;97969.34;5029563;28;20455;-77
2023/07/16 05:59:39;;;;;;;3.90;1.70;;;19.20;91.20;;;19.66;74.17;98024.19;5027425;28;20508;-76
2023/07/16 06:02:07;;;;;;;2.23;1.37;;;19.40;91.20;;;19.88;72.81;98026.63;5031704;28;20454;-77
2023/07/16 06:04:34;;;;;;;2.13;1.50;;;19.70;90.50;;;19.86;72.86;98011.56;5035846;28;20513;-77
2023/07/16 06:07:04;;;;;;;1.47;1.37;;;19.70;90.40;;;19.42;72.49;97971.88;5036642;28;20507;-77
2023/07/16 06:09:31;;;;;;;2.60;1.57;;;19.70;90.10;;;19.64;72.46;98015.41;5028723;28;21147;-76
2023/07/16 06:11:58;;;;;;;1.80;1.53;;;19.70;90.20;;;19.65;72.93;98026.09;5030665;28;21069;-76
2023/07/16 06:14:25;;;;;;;2.80;1.60;;;19.60;90.30;;;19.60;73.27;98047.19;5027109;28;20469;-76
2023/07/16 06:16:53;;;;;;;1.43;1.33;;;19.60;90.40;;;19.71;74.04;98048.84;5026623;28;20442;-76
2023/07/16 06:19:20;;;;;;;1.93;1.00;;;19.50;90.80;;;19.79;73.27;98048.31;5028831;28;20836;-76
2023/07/16 06:21:47;;;;;;;1.57;1.47;;;19.70;90.40;;;19.56;72.51;98046.91;5050746;28;20457;-75
2023/07/16 06:24:16;;;;;;;2.00;1.17;;;19.60;90.10;;;19.49;71.71;98047.22;5046865;28;20453;-77
2023/07/16 06:26:43;;;;;;;4.33;1.40;;;19.50;89.70;;;19.81;71.77;98051.59;5040280;28;20480;-75
2023/07/16 06:29:10;;;;;;;2.00;1.33;;;19.60;90.20;;;19.66;71.68;98057.06;5039496;28;20450;-76
2023/07/16 06:31:37;;;;;;;1.13;1.03;;;19.70;89.60;;;19.74;72.73;98067.47;5035236;28;20439;-74
2023/07/16 06:34:05;;;;;;;2.70;1.53;;;19.60;90.30;;;19.71;72.81;98075.41;5030695;28;20449;-76
2023/07/16 06:36:32;;;;;;;1.43;1.33;;;19.60;90.20;;;19.81;71.08;98079.00;5030758;28;20481;-76
2023/07/16 06:39:00;;;;;;;2.40;1.53;;;19.70;89.60;;;19.68;71.77;98074.88;5027373;28;20447;-76
2023/07/16 06:41:30;;;;;;;1.63;1.27;;;19.60;89.60;;;19.86;71.25;98071.84;5029012;28;20467;-77
2023/07/16 06:43:57;;;;;;;1.50;1.40;;;19.70;89.50;;;20.01;69.92;98062.81;5027679;28;20956;-77
2023/07/16 06:46:24;;;;;;;1.73;1.40;;;19.80;88.80;;;20.36;69.95;98061.09;5045580;28;21397;-76
2023/07/16 06:48:51;;;;;;;5.07;1.60;;;20.00;89.10;;;20.77;68.61;98058.19;5027982;28;20981;-76
2023/07/16 06:51:18;;;;;;;2.30;1.20;;;20.40;88.80;;;20.75;67.33;98059.59;5036401;28;20448;-76
2023/07/16 06:53:45;;;;;;;1.70;1.60;;;20.70;87.10;;;21.47;65.24;98069.38;5030591;28;20472;-76
2023/07/16 06:56:12;;;;;;;1.57;1.47;;;21.10;86.50;;;21.43;65.05;98074.59;5032538;28;20499;-77
2023/07/16 06:58:41;;;;;;;2.50;2.13;;;21.30;85.70;;;21.79;63.28;98065.28;5043749;28;20459;-76
2023/07/16 07:01:08;;;;;;;2.07;1.60;;;21.60;84.80;;;21.93;62.17;98007.72;5026471;28;20453;-76
2023/07/16 07:03:35;;;;;;;1.87;1.27;;;21.90;84.60;;;22.44;61.40;98085.31;5031995;28;20462;-76
2023/07/16 07:06:04;;;;;;;1.90;1.60;;;22.20;83.60;;;22.27;61.91;98089.34;5041808;28;20656;-76
2023/07/16 07:08:31;;;;;;;3.20;1.63;;;22.20;83.40;;;21.62;63.14;98071.19;5029111;28;20445;-77
2023/07/16 07:10:58;;;;;;;3.93;1.63;;;21.80;83.10;;;21.92;62.74;98085.81;5059682;28;20502;-76
2023/07/16 07:13:26;;;;;;;2.37;1.43;;;21.80;83.50;;;21.14;63.75;98093.75;5028253;28;20510;-76
2023/07/16 07:15:54;;;;;;;2.23;1.50;;;21.40;83.10;;;21.04;65.05;98089.94;5027467;28;20523;-76
2023/07/16 07:18:22;;;;;;;2.47;1.50;;;21.00;84.40;;;20.52;66.78;98100.28;5042047;28;20507;-76
2023/07/16 07:20:49;;;;;;;1.60;1.47;;;20.50;84.90;;;20.54;67.39;98098.06;5026759;28;20539;-76
2023/07/16 07:23:17;;;;;;;3.50;1.50;;;20.40;85.90;;;19.99;67.49;98054.88;5027701;28;20449;-75
2023/07/16 07:25:44;;;;;;;1.80;1.47;;;20.30;85.70;;;20.04;69.20;98103.41;5027530;28;20458;-76
2023/07/16 07:28:12;;;;;;;4.70;1.57;;;20.00;86.80;;;19.24;69.22;98026.91;5063483;28;21030;-76
2023/07/16 07:30:39;;;;;;;2.17;1.50;;;19.80;86.80;;;19.39;71.17;98104.72;5030146;28;20457;-75
2023/07/16 07:33:07;;;;;;;2.53;1.53;;;19.50;87.80;;;19.51;71.53;98105.28;5030235;28;20507;-76
2023/07/16 07:35:34;;;;;;;2.47;1.70;;;19.40;88.40;;;19.31;70.71;98099.75;5030970;28;20457;-77
2023/07/16 07:38:01;;;;;;;2.63;2.00;;;19.40;87.70;;;19.52;69.21;98085.00;5026638;28;20469;-76
2023/07/16 07:40:29;;;;;;;1.83;1.50;;;19.40;87.70;;;19.91;68.16;98099.25;5031823;28;20562;-75
2023/07/16 07:42:56;;;;;;;2.83;1.80;;;19.60;87.20;;;20.33;67.39;98092.66;5036201;28;20502;-76
2023/07/16 07:45:24;;;;;;;3.00;1.80;;;19.90;86.80;;;20.44;65.38;98082.47;5033518;28;21411;-76
2023/07/16 07:47:52;;;;;;;1.57;1.47;;;20.30;85.50;;;20.52;65.16;98097.53;5042258;28;20486;-77
2023/07/16 07:50:21;;;;;;;2.90;2.13;;;20.30;85.20;;;20.72;65.15;98093.09;5028285;28;20507;-75
2023/07/16 07:52:48;;;;;;;3.40;1.57;;;20.30;85.30;;;20.09;64.96;98010.16;5029772;28;20538;-77
2023/07/16 07:55:15;;;;;;;1.50;1.30;;;20.30;84.70;;;20.76;64.50;98084.00;5024124;28;20461;-76
2023/07/16 07:57:42;;;;;;;2.10;1.77;;;20.50;84.80;;;21.03;63.97;98065.53;5038633;28;20454;-76
2023/07/16 08:00:11;;;;;;;3.93;1.80;;;20.70;85.00;;;20.91;63.74;98043.88;5025936;28;20526;-79
2023/07/16 08:02:39;;;;;;;3.73;1.63;;;20.80;84.40;;;21.60;62.12;98074.22;5038299;28;20843;-77
2023/07/16 08:05:07;;;;;;;2.60;1.50;;;21.10;83.90;;;21.14;62.42;98061.59;5034737;28;20476;-77
2023/07/16 08:07:36;;;;;;;2.50;1.83;;;21.10;83.10;;;20.95;64.06;98100.69;5045758;28;20488;-77
2023/07/16 08:10:04;;;;;;;3.23;2.00;;;20.80;83.80;;;20.85;63.58;98076.06;5031274;28;20449;-77
2023/07/16 08:12:32;;;;;;;2.67;1.87;;;20.80;83.80;;;21.49;62.63;98084.47;5034055;28;20836;-76
2023/07/16 08:14:59;;;;;;;2.20;1.40;;;20.90;84.00;;;21.74;62.16;98099.16;5031983;28;20468;-76
2023/07/16 08:17:27;;;;;;;2.00;1.60;;;21.30;83.60;;;21.84;61.69;98105.69;5030064;28;20532;-77
2023/07/16 08:19:54;;;;;;;2.17;1.57;;;21.40;83.30;;;22.01;60.71;98108.81;5029729;28;20541;-77
2023/07/16 08:22:23;;;;;;;1.87;1.67;;;21.70;82.80;;;21.92;60.66;98102.31;5030774;28;20464;-75
2023/07/16 08:24:52;;;;;;;4.40;2.20;;;21.60;82.50;;;21.70;61.35;98111.03;5046557;28;20540;-77
2023/07/16 08:27:20;;;;;;;2.03;1.83;;;21.40;82.70;;;21.58;61.62;98109.41;5048074;28;20450;-75
2023/07/16 08:29:47;;;;;;;3.67;1.90;;;21.20;82.80;;;21.84;59.82;98112.00;5033092;28;20484;-76
2023/07/16 08:32:14;;;;;;;3.33;1.80;;;21.50;81.70;;;22.19;59.62;98111.97;5036068;28;20888;-79
2023/07/16 08:34:41;;;;;;;2.67;2.00;;;21.70;81.80;;;22.36;59.11;98106.03;5030858;28;20461;-76
2023/07/16 08:37:10;;;;;;;2.10;1.63;;;21.90;81.40;;;22.69;58.33;98113.69;5038856;28;20450;-76
2023/07/16 08:39:37;;;;;;;1.90;1.80;;;22.20;81.00;;;22.48;58.38;98113.91;5029274;28;20455;-75
2023/07/16 08:42:07;;;;;;;2.50;1.50;;;22.20;80.50;;;22.40;58.44;98111.78;5034566;28;20446;-75
2023/07/16 08:44:35;;;;;;;2.33;2.13;;;22.10;80.40;;;21.60;59.64;98107.19;5050739;28;20457;-74
2023/07/16 08:47:02;;;;;;;6.30;2.07;;;21.40;80.30;;;21.44;60.27;98109.22;5023570;28;20511;-75
2023/07/16 08:49:31;;;;;;;2.90;1.73;;;21.40;80.50;;;21.68;59.95;98118.72;5028681;28;20449;-76
2023/07/16 08:51:58;;;;;;;2.00;1.80;;;21.40;80.60;;;21.49;60.23;98098.22;5067026;28;20966;-76
2023/07/16 08:54:26;;;;;;;1.27;1.17;;;21.40;80.80;;;21.91;59.25;98101.50;5045365;28;20526;-75
2023/07/16 08:56:53;;;;;;;4.20;1.63;;;21.70;81.00;;;22.50;58.08;98128.19;5034525;28;20454;-76
2023/07/16 08:59:22;;;;;;;3.83;2.50;;;22.10;80.30;;;22.15;58.97;98099.91;5033231;28;20527;-74
2023/07/16 09:01:49;;;;;;;2.37;1.97;;;22.20;80.20;;;22.35;59.98;98127.22;5029984;28;20461;-75
2023/07/16 09:04:17;;;;;;;2.67;1.90;;;22.10;81.00;;;22.56;58.36;98107.78;5028547;28;20958;-75
2023/07/16 09:06:44;;;;;;;4.20;2.43;;;22.50;80.10;;;22.77;56.95;98118.53;5033934;28;20535;-75
2023/07/16 09:09:20;;;;;;;1.73;1.53;;;22.60;78.90;;;22.77;57.43;98138.66;5034078;28;21044;-77
2023/07/16 09:11:49;;;;;;;2.67;1.70;;;22.50;79.30;;;22.79;56.13;98119.06;5023303;28;20458;-76
2023/07/16 09:14:19;;;;;;;2.30;1.90;;;22.70;78.10;;;22.95;56.82;98110.63;5040636;28;20484;-76
2023/07/16 09:16:50;;;;;;;3.00;1.77;;;22.50;79.00;;;23.64;53.47;98121.28;5043076;28;20480;-77
2023/07/16 09:19:18;;;;;;;2.80;1.97;;;23.20;76.90;;;24.37;52.32;98125.63;5047401;28;20451;-75
2023/07/16 09:21:48;;;;;;;2.40;1.47;;;23.80;76.10;;;24.08;51.51;98124.72;5054965;28;20498;-77
2023/07/16 09:24:15;;;;;;;5.87;1.70;;;24.00;73.80;;;24.46;51.38;98118.25;5041499;28;20480;-74
2023/07/16 09:26:50;;;;;;;2.03;1.50;;;24.10;74.20;;;24.56;50.98;98126.34;5036880;28;20454;-75
2023/07/16 09:29:17;;;;;;;3.00;2.10;;;24.40;72.90;;;24.21;50.62;98123.13;5029474;28;20476;-75
2023/07/16 09:32:02;;;;;;;2.80;2.00;;;24.00;72.10;;;24.16;50.68;98123.22;5044015;28;20796;-76
2023/07/16 09:34:30;;;;;;;3.43;1.57;;;24.00;71.90;;;24.08;51.44;98127.47;5028856;28;20999;-76
2023/07/16 09:36:58;;;;;;;2.50;1.63;;;23.90;72.20;;;23.26;52.48;98133.13;5027586;28;20482;-74
2023/07/16 09:39:27;;;;;;;4.50;1.20;;;23.30;71.20;;;23.25;52.57;98112.16;5027515;28;20489;-76
2023/07/16 09:41:56;;;;;;;2.70;1.90;;;23.20;72.10;;;23.56;51.42;98132.97;5028929;28;20467;-75
2023/07/16 09:44:23;;;;;;;3.67;1.97;;;23.30;71.60;;;23.78;52.03;98118.56;5041747;28;21251;-76
2023/07/16 09:46:50;;;;;;;3.10;1.53;;;23.40;72.20;;;24.26;50.42;98109.25;5028657;28;20452;-75
2023/07/16 09:49:19;;;;;;;1.63;1.40;;;23.80;71.30;;;24.66;49.89;98111.53;5032550;28;20526;-74
2023/07/16 09:51:48;;;;;;;7.60;2.30;;;24.30;71.30;;;25.14;48.19;98117.75;5035036;28;20451;-76
2023/07/16 09:54:16;;;;;;;3.10;1.77;;;24.70;69.70;;;24.46;49.82;98109.97;5031782;28;20482;-77
2023/07/16 09:56:48;;;;;;;2.40;1.60;;;24.30;69.50;;;24.57;49.73;98086.56;5024876;28;20489;-78
2023/07/16 09:59:18;;;;;;;1.80;1.50;;;24.50;69.60;;;25.02;47.65;98096.19;5036638;28;20479;-79
2023/07/16 10:01:45;;;;;;;2.00;1.80;;;24.80;68.10;;;24.47;47.44;98086.75;5027312;28;20435;-79
2023/07/16 10:04:19;;;;;;;2.00;1.43;;;24.70;66.70;;;24.01;48.71;98091.97;5029593;28;20451;-80
2023/07/16 10:06:55;;;;;;;1.93;1.30;;;24.30;67.00;;;24.59;47.58;98106.41;5036017;28;20537;-79
2023/07/16 10:09:41;;;;;;;1.77;1.30;;;24.40;67.40;;;24.40;47.31;98103.72;5031609;28;20821;-79
2023/07/16 10:12:14;;;;;;;2.20;1.50;;;24.20;66.30;;;24.24;48.45;98100.44;5031339;28;20815;-78
2023/07/16 10:14:43;;;;;;;5.03;1.50;;;24.10;66.80;;;24.30;48.35;98103.94;5023701;28;20497;-79
2023/07/16 10:17:15;;;;;;;4.27;1.80;;;24.10;67.20;;;23.82;49.73;98099.47;5029422;28;21352;-78
2023/07/16 10:19:55;;;;;;;3.40;1.60;;;23.80;67.30;;;24.10;49.43;98110.63;5034109;28;20490;-80
2023/07/16 10:22:37;;;;;;;2.93;2.07;;;23.90;67.70;;;23.62;49.86;98104.22;5025942;28;20464;-80